Time;durP1;ratioP1;P1;durP2;ratioP2;P2;SDS_P1;SDS_P2;PMS_P1;PMS_P2;Temp;Humidity;BMP_temperature;BMP_pressure;BME280_temperature;BME280_humidity;BME280_pressure;Samples;Min_cycle;Max_cycle;Signal;HPM_P1;HPM_P2
2023/01/27 00:00:52;;;;;;;13.67;8.90;;;4.20;99.90;;;;;;5031884;28;20203;-45
2023/01/27 00:03:18;;;;;;;12.67;9.23;;;;;;;;;;5031640;28;20190;-50
2023/01/27 00:05:45;;;;;;;12.37;8.47;;;4.20;99.90;;;;;;5031641;28;20182;-46
2023/01/27 00:08:11;;;;;;;12.77;8.97;;;;;;;;;;5031178;28;20199;-48
2023/01/27 00:10:37;;;;;;;13.40;8.70;;;;;;;;;;5031658;28;20199;-48
2023/01/27 00:15:47;;;;;;;13.10;9.07;;;;;;;;;;5031660;28;20215;-47
2023/01/27 00:18:13;;;;;;;11.50;8.10;;;;;;;;;;5031116;28;20223;-51
2023/01/27 00:26:14;;;;;;;12.40;9.00;;;3.90;99.90;;;;;;5031598;28;20249;-45
2023/01/27 00:28:40;;;;;;;11.80;8.17;;;;;;;;;;5031217;28;20676;-50
2023/01/27 00:33:54;;;;;;;13.73;9.27;;;;;;;;;;5031671;28;20234;-49
2023/01/27 00:36:21;;;;;;;13.67;9.27;;;;;;;;;;5031203;28;20187;-51
2023/01/27 00:38:47;;;;;;;12.80;8.83;;;;;;;;;;5031045;28;20275;-51
2023/01/27 00:41:18;;;;;;;15.23;9.53;;;3.90;99.90;;;;;;5031235;28;20254;-51
2023/01/27 00:43:45;;;;;;;13.53;9.40;;;;;;;;;;5031339;28;20222;-48
2023/01/27 00:46:11;;;;;;;13.47;8.97;;;;;;;;;;5031131;28;20262;-48
2023/01/27 00:48:37;;;;;;;14.57;9.13;;;3.70;99.90;;;;;;5030840;28;20274;-51
2023/01/27 00:51:02;;;;;;;13.20;8.73;;;3.90;99.90;;;;;;5031179;28;20211;-48
2023/01/27 00:53:28;;;;;;;11.47;8.20;;;;;;;;;;5031154;28;20188;-50
2023/01/27 00:55:54;;;;;;;12.80;8.83;;;;;;;;;;5031214;28;20259;-51
2023/01/27 00:58:21;;;;;;;13.33;8.93;;;;;;;;;;5030707;28;20611;-51
2023/01/27 01:00:47;;;;;;;13.43;9.47;;;;;;;;;;5031085;28;20534;-49
2023/01/27 01:03:13;;;;;;;13.63;9.23;;;;;;;;;;5031127;28;20191;-51
2023/01/27 01:05:39;;;;;;;10.97;8.27;;;;;;;;;;5031167;28;20250;-50
2023/01/27 01:08:05;;;;;;;11.37;7.87;;;;;;;;;;5030682;28;20204;-52
2023/01/27 01:10:31;;;;;;;13.70;8.77;;;;;;;;;;5030968;28;20226;-51
2023/01/27 01:12:57;;;;;;;12.40;8.47;;;;;;;;;;5031095;28;20168;-50
2023/01/27 01:15:22;;;;;;;12.23;8.73;;;;;;;;;;5029794;28;20164;-53
2023/01/27 01:17:48;;;;;;;12.20;8.23;;;;;;;;;;5030517;28;20246;-49
2023/01/27 01:20:14;;;;;;;12.43;8.70;;;;;;;;;;5031082;28;20176;-50
2023/01/27 01:22:40;;;;;;;13.10;8.70;;;;;;;;;;5030990;28;20202;-53
2023/01/27 01:25:07;;;;;;;12.00;8.33;;;;;;;;;;5033796;28;20254;-50
2023/01/27 01:27:33;;;;;;;13.67;9.03;;;;;;;;;;5034574;28;20564;-49
2023/01/27 01:30:00;;;;;;;14.43;8.90;;;;;;;;;;5033851;28;20306;-52
2023/01/27 01:32:25;;;;;;;11.53;8.13;;;;;;;;;;5034521;28;20168;-50
2023/01/27 01:34:51;;;;;;;14.23;8.87;;;;;;;;;;5034630;28;20239;-49
2023/01/27 01:37:17;;;;;;;12.87;8.77;;;;;;;;;;5034318;28;20188;-50
2023/01/27 01:39:43;;;;;;;12.73;8.90;;;;;;;;;;5034296;28;20593;-50
2023/01/27 01:42:09;;;;;;;13.77;9.07;;;;;;;;;;5034514;28;20536;-50
2023/01/27 01:44:35;;;;;;;11.93;8.80;;;;;;;;;;5034196;28;20489;-51
2023/01/27 01:47:01;;;;;;;11.47;8.40;;;;;;;;;;5034211;28;20692;-52
2023/01/27 01:49:31;;;;;;;11.73;8.20;;;;;;;;;;5034141;28;20276;-53
2023/01/27 01:51:59;;;;;;;13.90;8.77;;;;;;;;;;5034147;28;20249;-50
2023/01/27 01:54:27;;;;;;;12.03;8.17;;;;;;;;;;5034266;28;20225;-51
2023/01/27 01:56:55;;;;;;;11.30;8.53;;;;;;;;;;5034122;28;20196;-49
2023/01/27 01:59:41;;;;;;;11.60;8.20;;;;;;;;;;5033683;28;20172;-50
2023/01/27 02:02:09;;;;;;;11.77;7.97;;;;;;;;;;5034087;28;20620;-53
2023/01/27 02:04:42;;;;;;;11.00;8.03;;;3.50;99.90;;;;;;5034092;28;20176;-50
2023/01/27 02:07:18;;;;;;;11.40;8.23;;;3.60;99.90;;;;;;5033826;28;20953;-50
2023/01/27 02:09:44;;;;;;;11.80;8.43;;;3.50;99.90;;;;;;5033699;28;20224;-50
2023/01/27 02:12:09;;;;;;;12.93;9.53;;;3.50;99.90;;;;;;5033812;28;20712;-50
2023/01/27 02:14:35;;;;;;;12.40;8.77;;;3.40;99.90;;;;;;5033693;28;20701;-50
2023/01/27 02:17:03;;;;;;;12.90;9.17;;;3.50;99.90;;;;;;5033647;28;20568;-50
2023/01/27 02:20:03;;;;;;;11.33;8.57;;;3.50;99.90;;;;;;5033534;28;20168;-50
2023/01/27 02:22:43;;;;;;;11.30;8.53;;;3.60;99.90;;;;;;5033703;28;20886;-50
2023/01/27 02:25:18;;;;;;;11.73;8.20;;;3.60;99.90;;;;;;5033701;28;20168;-49
2023/01/27 02:27:44;;;;;;;12.03;8.40;;;3.60;99.90;;;;;;5033335;28;20418;-49
2023/01/27 02:30:10;;;;;;;11.37;8.27;;;3.50;99.90;;;;;;5031988;28;20534;-52
2023/01/27 02:32:36;;;;;;;13.90;8.67;;;3.50;99.90;;;;;;5033385;28;20172;-53
2023/01/27 02:35:02;;;;;;;11.80;8.50;;;3.60;99.90;;;;;;5032622;28;20818;-51
2023/01/27 02:37:30;;;;;;;12.80;9.13;;;3.50;99.90;;;;;;5033000;28;20196;-51
2023/01/27 02:39:58;;;;;;;11.23;7.70;;;3.10;99.90;;;;;;5033019;28;20168;-50
2023/01/27 02:42:23;;;;;;;12.67;8.33;;;3.60;99.90;;;;;;5033089;28;20671;-50
2023/01/27 02:44:49;;;;;;;12.83;8.67;;;3.20;99.90;;;;;;5033229;28;20176;-50
2023/01/27 02:47:14;;;;;;;12.70;8.77;;;3.20;99.90;;;;;;5032939;28;20204;-49
2023/01/27 02:49:40;;;;;;;13.43;8.90;;;3.20;99.90;;;;;;5032934;28;20180;-50
2023/01/27 02:52:06;;;;;;;11.67;8.43;;;;;;;;;;5033044;28;20659;-53
2023/01/27 02:54:32;;;;;;;12.60;9.20;;;;;;;;;;5033184;28;20172;-51
2023/01/27 02:56:58;;;;;;;14.60;8.83;;;;;;;;;;5032946;28;20202;-53
2023/01/27 02:59:24;;;;;;;11.83;8.33;;;;;;;;;;5032515;28;20168;-51
2023/01/27 03:01:50;;;;;;;11.53;7.70;;;;;;;;;;5032914;28;20188;-50
2023/01/27 03:04:16;;;;;;;11.23;7.17;;;;;;;;;;5032869;28;20247;-51
2023/01/27 03:06:42;;;;;;;13.60;9.23;;;;;;;;;;5032791;28;20180;-49
2023/01/27 03:09:07;;;;;;;13.23;7.77;;;;;;;;;;5032664;28;20184;-53
2023/01/27 03:14:17;;;;;;;12.37;8.90;;;3.30;99.90;;;;;;5032571;28;20662;-53
2023/01/27 03:19:26;;;;;;;12.80;9.03;;;3.00;99.90;;;;;;5032534;28;20179;-49
2023/01/27 03:21:53;;;;;;;14.90;9.37;;;2.90;99.90;;;;;;5032528;28;20415;-46
2023/01/27 03:24:19;;;;;;;14.30;9.43;;;2.90;99.90;;;;;;5032543;28;20171;-53
2023/01/27 03:26:45;;;;;;;13.30;9.73;;;3.00;99.90;;;;;;5031000;28;20922;-50
2023/01/27 03:31:56;;;;;;;13.40;8.90;;;3.10;99.90;;;;;;5032374;28;20210;-50
2023/01/27 03:34:21;;;;;;;13.47;9.37;;;3.00;99.90;;;;;;5032327;28;20917;-50
2023/01/27 03:47:43;;;;;;;13.20;9.00;;;3.50;99.90;;;;;;5030869;28;20210;-51
2023/01/27 03:50:10;;;;;;;14.13;9.47;;;;;;;;;;5031737;28;20684;-54
2023/01/27 03:52:36;;;;;;;11.57;8.87;;;3.60;99.90;;;;;;5030820;28;20251;-50
2023/01/27 03:55:03;;;;;;;15.70;10.20;;;5.10;99.90;;;;;;5031993;28;20179;-52
2023/01/27 03:57:28;;;;;;;14.57;10.10;;;3.60;99.90;;;;;;5031768;28;20430;-49
2023/01/27 03:59:54;;;;;;;14.10;9.40;;;3.60;99.90;;;;;;5031448;28;20183;-50
2023/01/27 04:07:48;;;;;;;13.20;9.57;;;3.60;99.90;;;;;;5031358;28;20741;-50
2023/01/27 04:10:14;;;;;;;12.90;9.47;;;3.60;99.90;;;;;;5031567;28;20183;-51
2023/01/27 04:12:40;;;;;;;12.90;10.00;;;3.70;99.90;;;;;;5031669;28;20211;-50
2023/01/27 04:15:07;;;;;;;14.00;9.87;;;3.70;99.90;;;;;;5031762;28;20544;-50
2023/01/27 04:17:37;;;;;;;12.97;9.53;;;3.70;99.90;;;;;;5031656;28;20200;-50
2023/01/27 04:20:03;;;;;;;15.50;9.77;;;3.70;99.90;;;;;;5031304;28;20302;-53
2023/01/27 04:22:29;;;;;;;12.60;9.70;;;3.70;99.90;;;;;;5031450;28;20175;-53
2023/01/27 04:24:55;;;;;;;14.33;10.10;;;3.70;99.90;;;;;;5031476;28;20176;-50
2023/01/27 04:27:20;;;;;;;15.27;9.83;;;3.60;99.90;;;;;;5031253;28;20191;-51
2023/01/27 04:29:46;;;;;;;15.07;9.03;;;3.60;99.90;;;;;;5031005;28;20195;-50
2023/01/27 04:32:12;;;;;;;13.27;9.80;;;3.70;99.90;;;;;;5031331;28;20213;-52
2023/01/27 04:34:39;;;;;;;17.10;10.63;;;3.70;99.90;;;;;;5031388;28;20164;-51
2023/01/27 04:37:06;;;;;;;14.40;10.20;;;3.70;99.90;;;;;;5031231;28;20192;-50
2023/01/27 04:39:32;;;;;;;13.23;9.40;;;3.70;99.90;;;;;;5030910;28;20195;-50
2023/01/27 04:41:58;;;;;;;13.53;9.70;;;3.70;99.90;;;;;;5030028;28;20450;-51
2023/01/27 04:44:24;;;;;;;14.27;9.13;;;3.70;99.90;;;;;;5031308;28;20602;-49
2023/01/27 04:46:50;;;;;;;14.73;9.37;;;3.60;99.90;;;;;;5031174;28;20249;-49
2023/01/27 04:49:17;;;;;;;13.50;9.70;;;3.50;99.90;;;;;;5031032;28;20179;-49
2023/01/27 04:51:43;;;;;;;15.17;10.53;;;3.50;99.90;;;;;;5031039;28;20196;-50
2023/01/27 04:54:08;;;;;;;16.57;9.83;;;3.60;99.90;;;;;;5030099;28;20168;-52
2023/01/27 04:56:52;;;;;;;16.20;10.73;;;3.50;99.90;;;;;;5030999;28;20667;-51
2023/01/27 04:59:18;;;;;;;11.60;8.73;;;3.50;99.90;;;;;;5032657;28;20533;-49
2023/01/27 05:01:43;;;;;;;12.07;9.07;;;3.50;99.90;;;;;;5035201;28;20183;-50
2023/01/27 05:04:09;;;;;;;15.07;10.23;;;3.50;99.90;;;;;;5035122;28;20175;-49
2023/01/27 05:06:34;;;;;;;14.77;10.40;;;3.50;99.90;;;;;;5034920;28;20179;-51
2023/01/27 05:09:00;;;;;;;14.77;10.57;;;3.50;99.90;;;;;;5034802;28;20172;-50
2023/01/27 05:11:26;;;;;;;13.63;9.87;;;3.50;99.90;;;;;;5034842;28;20257;-51
2023/01/27 05:13:51;;;;;;;15.67;10.67;;;3.60;99.90;;;;;;5035083;28;20556;-51
2023/01/27 05:16:22;;;;;;;14.03;9.80;;;3.50;99.90;;;;;;5034891;28;20172;-51
2023/01/27 05:18:49;;;;;;;13.53;10.17;;;3.50;99.90;;;;;;5034558;28;20202;-52
2023/01/27 05:21:23;;;;;;;15.97;10.80;;;3.40;99.90;;;;;;5034671;28;20168;-53
2023/01/27 05:23:49;;;;;;;13.67;9.80;;;3.40;99.90;;;;;;5034819;28;20818;-55
2023/01/27 05:26:26;;;;;;;16.87;11.03;;;3.30;99.90;;;;;;5034428;28;20656;-52
2023/01/27 05:28:53;;;;;;;13.23;9.43;;;3.30;99.90;;;;;;5034364;28;20457;-52
2023/01/27 05:31:21;;;;;;;14.83;10.20;;;3.40;99.90;;;;;;5034704;28;20288;-50
2023/01/27 05:33:49;;;;;;;15.10;10.73;;;3.40;99.90;;;;;;5034553;28;20168;-51
2023/01/27 05:36:17;;;;;;;15.03;10.77;;;3.50;99.90;;;;;;5034497;28;20649;-52
2023/01/27 05:38:42;;;;;;;15.53;10.43;;;3.50;99.90;;;;;;5034243;28;20195;-52
2023/01/27 05:41:10;;;;;;;14.00;9.83;;;3.60;99.90;;;;;;5034391;28;20168;-53
2023/01/27 05:43:38;;;;;;;15.70;10.67;;;3.50;99.90;;;;;;5033191;28;20180;-51
2023/01/27 05:46:24;;;;;;;14.80;10.00;;;3.60;99.90;;;;;;5034238;28;20237;-52
2023/01/27 05:48:52;;;;;;;14.17;10.17;;;3.60;99.90;;;;;;5034259;28;20219;-51
2023/01/27 05:51:20;;;;;;;15.23;10.50;;;3.70;99.90;;;;;;5034218;28;20201;-50
2023/01/27 05:53:46;;;;;;;16.23;10.93;;;3.60;99.90;;;;;;5034283;28;20242;-51
2023/01/27 05:56:14;;;;;;;15.93;11.03;;;3.50;99.90;;;;;;5034158;28;20195;-49
2023/01/27 05:58:40;;;;;;;15.10;10.60;;;3.50;99.90;;;;;;5033701;28;20267;-50
2023/01/27 06:01:15;;;;;;;15.43;11.20;;;3.60;99.90;;;;;;5032756;28;20204;-52
2023/01/27 06:03:41;;;;;;;15.53;10.60;;;3.60;99.90;;;;;;5034072;28;20171;-52
2023/01/27 06:06:08;;;;;;;14.70;10.87;;;3.60;99.90;;;;;;5033978;28;20203;-50
2023/01/27 06:08:35;;;;;;;16.83;11.77;;;3.60;99.90;;;;;;5033565;28;20191;-51
2023/01/27 06:11:01;;;;;;;18.77;11.13;;;3.60;99.90;;;;;;5031549;28;20202;-49
2023/01/27 06:13:27;;;;;;;15.70;10.87;;;3.70;99.90;;;;;;5031277;28;20176;-50
2023/01/27 06:15:54;;;;;;;15.97;10.53;;;3.70;99.90;;;;;;5033188;28;20222;-52
2023/01/27 06:18:20;;;;;;;14.90;10.40;;;4.80;99.90;;;;;;5033141;28;20188;-47
2023/01/27 06:20:46;;;;;;;15.87;10.70;;;3.60;99.90;;;;;;5031940;28;20275;-49
2023/01/27 06:23:13;;;;;;;14.60;10.20;;;3.60;99.90;;;;;;5033404;28;20207;-50
2023/01/27 06:25:45;;;;;;;14.90;10.60;;;3.60;99.90;;;;;;5033575;28;20191;-53
2023/01/27 06:28:11;;;;;;;14.53;10.30;;;3.60;99.90;;;;;;5030633;28;20219;-51
2023/01/27 06:30:38;;;;;;;15.97;11.03;;;3.60;99.90;;;;;;5028402;28;20216;-52
2023/01/27 06:33:04;;;;;;;17.33;11.07;;;3.70;99.90;;;;;;5016130;28;20190;-49
2023/01/27 06:35:31;;;;;;;15.73;11.23;;;3.70;99.90;;;;;;5029381;28;20175;-51
2023/01/27 06:37:57;;;;;;;15.33;10.40;;;3.80;99.90;;;;;;5029325;28;20200;-51
2023/01/27 06:40:24;;;;;;;15.50;10.57;;;3.80;99.90;;;;;;5033360;28;20172;-51
2023/01/27 06:42:49;;;;;;;14.23;10.37;;;3.70;99.90;;;;;;5029975;28;20430;-48
2023/01/27 06:45:15;;;;;;;17.47;11.23;;;3.60;99.90;;;;;;5031198;28;20233;-49
2023/01/27 06:47:41;;;;;;;15.53;10.30;;;3.50;99.90;;;;;;5031198;28;20235;-52
2023/01/27 06:50:09;;;;;;;13.07;9.67;;;3.50;99.90;;;;;;5032740;28;20176;-49
2023/01/27 06:52:35;;;;;;;15.93;11.63;;;3.50;99.90;;;;;;5031630;28;20211;-54
2023/01/27 06:55:01;;;;;;;15.60;11.13;;;3.60;99.90;;;;;;5032964;28;20286;-50
2023/01/27 06:57:27;;;;;;;14.33;10.57;;;3.70;99.90;;;;;;5031250;28;20192;-52
2023/01/27 06:59:53;;;;;;;16.43;10.73;;;3.80;99.90;;;;;;5031152;28;20698;-48
2023/01/27 07:02:18;;;;;;;14.53;10.83;;;3.80;99.90;;;;;;5033957;28;20184;-50
2023/01/27 07:04:44;;;;;;;17.30;10.17;;;3.80;99.90;;;;;;5030272;28;20186;-52
2023/01/27 07:07:09;;;;;;;14.60;11.03;;;3.80;99.90;;;;;;5028212;28;20211;-53
2023/01/27 07:09:35;;;;;;;14.07;10.13;;;3.90;99.90;;;;;;5039551;28;20186;-48
2023/01/27 07:12:01;;;;;;;15.43;10.67;;;3.80;99.90;;;;;;5040179;28;20213;-49
2023/01/27 07:14:26;;;;;;;15.17;10.80;;;3.80;99.90;;;;;;5031246;28;20349;-51
2023/01/27 07:16:52;;;;;;;15.70;11.20;;;3.80;99.90;;;;;;5031110;28;20207;-49
2023/01/27 07:19:17;;;;;;;16.87;11.47;;;3.80;99.90;;;;;;5031549;28;20172;-51
2023/01/27 07:21:43;;;;;;;16.03;10.70;;;3.80;99.90;;;;;;5030561;28;20190;-51
2023/01/27 07:24:09;;;;;;;16.03;10.90;;;3.80;99.90;;;;;;5031482;28;20652;-53
2023/01/27 07:26:34;;;;;;;15.17;11.30;;;3.70;99.90;;;;;;5035845;28;20835;-49
2023/01/27 07:29:00;;;;;;;15.87;11.13;;;3.70;99.90;;;;;;5027776;28;20651;-51
2023/01/27 07:31:25;;;;;;;14.07;10.30;;;3.70;99.90;;;;;;5023509;28;20204;-52
2023/01/27 07:33:54;;;;;;;15.13;11.00;;;3.80;99.90;;;;;;5024727;28;20168;-50
2023/01/27 07:36:20;;;;;;;15.13;10.50;;;3.90;99.90;;;;;;5033336;28;20182;-49
2023/01/27 07:38:49;;;;;;;14.73;11.33;;;3.90;99.90;;;;;;5039664;28;20646;-49
2023/01/27 07:41:15;;;;;;;16.83;11.47;;;4.10;99.90;;;;;;5033266;28;20719;-48
2023/01/27 07:43:40;;;;;;;15.37;11.00;;;4.00;99.90;;;;;;5031374;28;20271;-50
2023/01/27 07:46:06;;;;;;;17.90;11.23;;;4.10;99.90;;;;;;5031781;28;20649;-52
2023/01/27 07:48:32;;;;;;;16.47;10.27;;;4.10;99.90;;;;;;5030531;28;20207;-49
2023/01/27 07:50:57;;;;;;;14.90;10.60;;;4.00;99.90;;;;;;5033124;28;20196;-49
2023/01/27 07:53:23;;;;;;;17.17;11.00;;;4.10;99.90;;;;;;5023860;28;20172;-50
2023/01/27 07:55:48;;;;;;;17.03;11.67;;;4.10;99.90;;;;;;5041669;28;20167;-47
2023/01/27 07:58:14;;;;;;;15.03;11.20;;;4.10;99.90;;;;;;5033950;28;20199;-48
2023/01/27 08:00:40;;;;;;;16.60;11.30;;;4.10;99.90;;;;;;5031583;28;20187;-48
2023/01/27 08:03:05;;;;;;;14.73;10.60;;;4.10;99.90;;;;;;5032153;28;20183;-52
2023/01/27 08:05:33;;;;;;;16.42;12.23;;;4.20;99.90;;;;;;5029948;28;20779;-49
2023/01/27 08:08:02;;;;;;;15.57;11.90;;;4.10;99.90;;;;;;5029809;28;20226;-50
2023/01/27 08:10:29;;;;;;;18.90;11.80;;;4.20;99.90;;;;;;5031463;28;20164;-52
2023/01/27 08:12:55;;;;;;;17.27;11.50;;;4.10;99.90;;;;;;5029133;28;20664;-49
2023/01/27 08:15:21;;;;;;;14.90;10.73;;;4.10;99.90;;;;;;5025437;28;20172;-52
2023/01/27 08:17:54;;;;;;;15.57;10.57;;;4.10;99.90;;;;;;5029515;28;20680;-50
2023/01/27 08:20:20;;;;;;;13.70;10.40;;;4.10;99.90;;;;;;5028965;28;20660;-47
2023/01/27 08:22:46;;;;;;;14.83;10.30;;;4.20;99.90;;;;;;5029538;28;20184;-50
2023/01/27 08:25:11;;;;;;;14.03;9.97;;;4.20;99.90;;;;;;5020175;28;20181;-46
2023/01/27 08:27:37;;;;;;;15.17;10.70;;;4.10;99.90;;;;;;4994021;28;20192;-52
2023/01/27 08:30:03;;;;;;;14.10;9.63;;;4.10;99.90;;;;;;5011358;28;20234;-52
2023/01/27 08:32:28;;;;;;;16.67;10.90;;;4.10;99.90;;;;;;5010074;28;20258;-49
2023/01/27 08:34:54;;;;;;;15.97;11.03;;;4.10;99.90;;;;;;5024474;28;20191;-49
2023/01/27 08:37:20;;;;;;;14.67;10.10;;;4.10;99.90;;;;;;5031095;28;20668;-49
2023/01/27 08:39:45;;;;;;;14.63;10.37;;;4.20;99.90;;;;;;5029807;28;20183;-51
2023/01/27 08:42:11;;;;;;;15.77;11.20;;;4.30;99.90;;;;;;5020134;28;20184;-50
2023/01/27 08:44:37;;;;;;;16.27;11.17;;;4.30;99.90;;;;;;5017403;28;20194;-48
2023/01/27 08:47:03;;;;;;;17.33;12.20;;;4.10;99.90;;;;;;5017750;28;20207;-51
2023/01/27 08:49:28;;;;;;;15.47;10.23;;;4.10;99.90;;;;;;5029782;28;20191;-48
2023/01/27 08:51:54;;;;;;;15.97;11.20;;;4.10;99.90;;;;;;5027399;28;20682;-44
2023/01/27 08:54:19;;;;;;;15.20;10.73;;;4.10;99.90;;;;;;5029448;28;20172;-46
2023/01/27 08:56:45;;;;;;;15.40;11.10;;;4.10;99.90;;;;;;5023944;28;20229;-45
2023/01/27 08:59:11;;;;;;;13.70;10.20;;;3.90;99.90;;;;;;5030094;28;20171;-47
2023/01/27 09:01:37;;;;;;;15.57;10.70;;;3.80;99.90;;;;;;5029420;28;20704;-41
2023/01/27 09:04:02;;;;;;;14.50;10.47;;;3.70;99.90;;;;;;5028947;28;20183;-44
2023/01/27 09:06:28;;;;;;;15.53;10.60;;;3.80;99.90;;;;;;5028387;28;20667;-46
2023/01/27 09:09:09;;;;;;;15.07;11.10;;;3.90;99.90;;;;;;5020870;28;20289;-46
2023/01/27 09:11:36;;;;;;;15.40;10.67;;;3.60;99.90;;;;;;5021364;28;20208;-46
2023/01/27 09:14:03;;;;;;;13.70;10.17;;;3.50;99.90;;;;;;5027535;28;20184;-50
2023/01/27 09:16:29;;;;;;;17.10;10.77;;;3.40;99.90;;;;;;5023151;28;20180;-47
2023/01/27 09:18:54;;;;;;;14.77;10.83;;;3.30;99.90;;;;;;5026742;28;20208;-50
2023/01/27 09:21:24;;;;;;;15.10;10.40;;;3.20;99.90;;;;;;5026601;28;20229;-45
2023/01/27 09:23:50;;;;;;;14.63;10.33;;;3.10;99.90;;;;;;5040751;28;20175;-46
2023/01/27 09:26:17;;;;;;;15.13;11.27;;;3.10;99.90;;;;;;5031427;28;20236;-49
2023/01/27 09:28:42;;;;;;;14.23;9.60;;;3.20;99.90;;;;;;5022332;28;20200;-51
2023/01/27 09:31:09;;;;;;;15.20;10.43;;;3.30;99.90;;;;;;5032162;28;20279;-47
2023/01/27 09:33:35;;;;;;;14.07;10.63;;;3.50;99.90;;;;;;5040274;28;20180;-46
2023/01/27 09:36:10;;;;;;;13.73;9.93;;;3.50;99.90;;;;;;5039231;28;20171;-48
2023/01/27 09:38:49;;;;;;;14.60;10.97;;;3.60;99.90;;;;;;5022025;28;20666;-46
2023/01/27 09:41:15;;;;;;;14.70;10.00;;;3.50;99.90;;;;;;5009328;28;20183;-48
2023/01/27 09:44:16;;;;;;;14.97;10.47;;;3.50;99.90;;;;;;5034167;28;20201;-45
2023/01/27 09:47:15;;;;;;;12.67;9.57;;;3.60;99.90;;;;;;4993794;28;20189;-45
2023/01/27 09:50:08;;;;;;;14.70;10.10;;;3.80;99.90;;;;;;5015763;28;20545;-46
2023/01/27 09:52:57;;;;;;;14.47;9.83;;;3.80;99.90;;;;;;5025467;28;20223;-47
2023/01/27 09:55:35;;;;;;;14.07;10.00;;;3.70;99.90;;;;;;5020291;28;20179;-48
2023/01/27 09:58:09;;;;;;;12.60;9.13;;;3.70;99.90;;;;;;5030509;28;20249;-46
2023/01/27 10:00:48;;;;;;;13.90;9.90;;;3.70;99.90;;;;;;5038628;28;20179;-47
2023/01/27 10:03:42;;;;;;;14.90;9.57;;;3.80;99.90;;;;;;5037895;28;20190;-46
2023/01/27 10:06:28;;;;;;;13.50;9.60;;;3.80;99.90;;;;;;5047859;28;20187;-48
2023/01/27 10:09:23;;;;;;;13.83;10.13;;;3.70;99.90;;;;;;5035629;28;20203;-47
2023/01/27 10:12:10;;;;;;;13.67;9.57;;;3.70;99.90;;;;;;5053306;28;20301;-46
2023/01/27 10:15:13;;;;;;;14.47;10.40;;;3.60;99.90;;;;;;5052445;28;20183;-46
2023/01/27 10:18:20;;;;;;;14.20;9.93;;;3.50;99.90;;;;;;5053506;28;20273;-50
2023/01/27 10:21:06;;;;;;;13.93;9.77;;;3.50;99.90;;;;;;4998841;28;20197;-45
2023/01/27 10:23:58;;;;;;;12.67;9.83;;;3.50;99.90;;;;;;4988518;28;20227;-46
2023/01/27 10:26:46;;;;;;;14.67;9.93;;;3.40;99.90;;;;;;4987754;28;20204;-49
2023/01/27 10:29:22;;;;;;;13.07;9.60;;;3.50;99.90;;;;;;4977949;28;20180;-50
2023/01/27 10:32:12;;;;;;;14.17;9.90;;;3.50;99.90;;;;;;4985671;28;20584;-49
2023/01/27 10:34:56;;;;;;;13.57;9.23;;;3.50;99.90;;;;;;5010570;28;20518;-47
2023/01/27 10:37:32;;;;;;;15.77;10.83;;;3.40;99.90;;;;;;5000189;28;20816;-50
2023/01/27 10:40:04;;;;;;;14.60;10.00;;;3.50;99.90;;;;;;4991873;28;20176;-48
2023/01/27 10:42:40;;;;;;;13.07;9.60;;;3.50;99.90;;;;;;5011369;28;20176;-47
2023/01/27 10:45:17;;;;;;;13.13;9.40;;;3.50;99.90;;;;;;5010551;28;20199;-47
2023/01/27 10:48:09;;;;;;;12.23;9.17;;;3.50;99.90;;;;;;5011085;28;20200;-48
2023/01/27 10:50:40;;;;;;;12.93;9.40;;;3.50;99.90;;;;;;4964281;28;20217;-46
2023/01/27 10:53:26;;;;;;;14.10;10.07;;;3.50;99.90;;;;;;4971991;28;20173;-45
2023/01/27 10:56:07;;;;;;;12.30;9.20;;;3.50;99.90;;;;;;4990468;28;20720;-51
2023/01/27 10:58:40;;;;;;;13.50;9.67;;;3.40;99.90;;;;;;5028075;28;20277;-47
2023/01/27 11:01:09;;;;;;;12.87;9.87;;;3.30;99.90;;;;;;5028675;28;20234;-49
2023/01/27 11:03:44;;;;;;;15.17;10.17;;;3.30;99.90;;;;;;5030392;28;20172;-47
2023/01/27 11:06:16;;;;;;;13.93;9.57;;;3.30;99.90;;;;;;5044968;28;20179;-49
2023/01/27 11:08:49;;;;;;;14.23;10.00;;;3.20;99.90;;;;;;5037064;28;20195;-51
2023/01/27 11:14:14;;;;;;;13.97;10.10;;;3.20;99.90;;;;;;5052877;28;20173;-50
2023/01/27 11:16:48;;;;;;;13.90;9.43;;;3.20;99.90;;;;;;5052352;28;20164;-48
2023/01/27 11:19:27;;;;;;;13.07;9.40;;;3.20;99.90;;;;;;5035360;28;20180;-50
2023/01/27 11:21:54;;;;;;;13.50;9.80;;;3.20;99.90;;;;;;5032248;28;20211;-53
2023/01/27 11:24:29;;;;;;;13.00;9.00;;;3.20;99.90;;;;;;5029850;28;20180;-47
2023/01/27 11:27:25;;;;;;;13.70;10.13;;;3.30;99.90;;;;;;5012591;28;20208;-47
2023/01/27 11:29:56;;;;;;;13.93;9.83;;;3.50;99.90;;;;;;5034681;28;20195;-45
2023/01/27 11:32:36;;;;;;;14.47;9.83;;;3.70;99.90;;;;;;5044837;28;20563;-48
2023/01/27 11:35:09;;;;;;;12.90;9.17;;;3.90;99.90;;;;;;5025231;28;20244;-49
2023/01/27 11:37:47;;;;;;;11.70;8.73;;;4.00;99.90;;;;;;5031136;28;20191;-47
2023/01/27 11:40:14;;;;;;;13.30;9.60;;;4.10;99.90;;;;;;5031407;28;20168;-47
2023/01/27 11:42:40;;;;;;;14.40;9.50;;;4.30;99.90;;;;;;5031785;28;20168;-52
2023/01/27 11:45:12;;;;;;;14.53;9.80;;;4.40;99.90;;;;;;5027395;28;20486;-45
2023/01/27 11:47:39;;;;;;;11.47;8.97;;;4.40;99.90;;;;;;5029241;28;20198;-47
2023/01/27 11:50:07;;;;;;;12.03;9.23;;;4.50;99.90;;;;;;5031578;28;20207;-48
2023/01/27 11:52:32;;;;;;;14.37;9.63;;;4.40;99.90;;;;;;5025825;28;20207;-47
2023/01/27 11:55:06;;;;;;;12.10;9.20;;;4.30;99.90;;;;;;5031829;28;20515;-48
2023/01/27 11:57:34;;;;;;;11.33;8.43;;;4.30;99.90;;;;;;5031666;28;20197;-48
2023/01/27 12:00:06;;;;;;;11.77;8.73;;;4.40;99.90;;;;;;5012541;28;20214;-47
2023/01/27 12:02:40;;;;;;;11.13;8.93;;;4.40;99.90;;;;;;5012028;28;20172;-47
2023/01/27 12:05:17;;;;;;;10.97;8.67;;;4.40;99.90;;;;;;5011746;28;20211;-48
2023/01/27 12:07:54;;;;;;;11.73;8.73;;;4.40;99.90;;;;;;5011523;28;20202;-47
2023/01/27 12:10:32;;;;;;;12.80;8.80;;;4.50;99.90;;;;;;5015619;28;20224;-52
2023/01/27 12:13:16;;;;;;;11.33;7.80;;;4.40;99.90;;;;;;5013924;28;20537;-46
2023/01/27 12:16:03;;;;;;;9.90;7.77;;;4.40;99.90;;;;;;5011506;28;20168;-48
2023/01/27 12:18:34;;;;;;;10.77;8.03;;;4.40;99.90;;;;;;5024496;28;20611;-48
2023/01/27 12:21:02;;;;;;;10.20;8.07;;;4.50;99.90;;;;;;5029646;28;20289;-47
2023/01/27 12:23:33;;;;;;;12.23;9.10;;;4.60;99.90;;;;;;5015893;28;20263;-46
2023/01/27 12:26:05;;;;;;;13.03;9.17;;;4.70;99.90;;;;;;5011744;28;20179;-44
2023/01/27 12:28:35;;;;;;;11.00;8.97;;;4.60;99.90;;;;;;5010738;28;20203;-49
2023/01/27 12:31:09;;;;;;;11.57;9.40;;;4.60;99.90;;;;;;5011589;28;20755;-46
2023/01/27 12:33:38;;;;;;;12.10;9.73;;;4.60;99.90;;;;;;5028093;28;20612;-49
2023/01/27 12:36:16;;;;;;;13.00;9.77;;;4.60;99.90;;;;;;5031134;28;20200;-50
2023/01/27 12:38:51;;;;;;;11.10;9.07;;;4.60;99.90;;;;;;5023337;28;20286;-50
2023/01/27 12:41:24;;;;;;;11.50;9.20;;;4.70;99.90;;;;;;5020062;28;20245;-49
2023/01/27 12:44:01;;;;;;;11.90;8.60;;;4.70;99.90;;;;;;5031066;28;20541;-49
2023/01/27 12:46:28;;;;;;;10.13;8.00;;;4.70;99.90;;;;;;5029522;28;20258;-49
2023/01/27 12:49:13;;;;;;;10.40;8.30;;;4.70;99.90;;;;;;5030570;28;20200;-48
2023/01/27 12:51:43;;;;;;;12.27;8.87;;;4.60;99.90;;;;;;5026527;28;20253;-48
2023/01/27 12:54:23;;;;;;;10.27;8.10;;;4.60;99.90;;;;;;5030172;28;20679;-49
2023/01/27 12:56:53;;;;;;;10.57;8.50;;;4.80;99.90;;;;;;5030541;28;20714;-51
2023/01/27 12:59:21;;;;;;;10.07;8.50;;;4.70;99.90;;;;;;5028795;28;20179;-49
2023/01/27 13:01:59;;;;;;;11.53;9.30;;;4.70;99.90;;;;;;5030513;28;20686;-51
2023/01/27 13:04:26;;;;;;;15.37;11.83;;;4.70;99.90;;;;;;5018577;28;20645;-50
2023/01/27 13:07:16;;;;;;;14.07;11.30;;;4.60;99.90;;;;;;5022179;28;20247;-52
2023/01/27 13:09:49;;;;;;;12.97;9.33;;;4.70;99.90;;;;;;5028335;28;20572;-52
2023/01/27 13:12:20;;;;;;;11.17;8.77;;;4.70;99.90;;;;;;5026769;28;20196;-48
2023/01/27 13:14:50;;;;;;;10.27;8.07;;;4.70;99.90;;;;;;5027580;28;20180;-50
2023/01/27 13:17:44;;;;;;;10.60;8.80;;;4.40;99.90;;;;;;5029864;28;20680;-48
2023/01/27 13:20:24;;;;;;;12.90;9.27;;;4.30;99.90;;;;;;5026401;28;20176;-49
2023/01/27 13:23:04;;;;;;;10.77;8.60;;;4.40;99.90;;;;;;5031864;28;20699;-49
2023/01/27 13:25:52;;;;;;;11.63;8.90;;;4.50;99.90;;;;;;5032147;28;20188;-48
2023/01/27 13:28:24;;;;;;;11.63;8.33;;;4.60;99.90;;;;;;5035394;28;20214;-47
2023/01/27 13:30:53;;;;;;;11.70;8.90;;;4.60;99.90;;;;;;5024719;28;20214;-46
2023/01/27 13:33:50;;;;;;;10.07;8.03;;;4.60;99.90;;;;;;5032037;28;20207;-50
2023/01/27 13:36:38;;;;;;;10.90;8.53;;;4.60;99.90;;;;;;5031132;28;20267;-51
2023/01/27 13:39:03;;;;;;;10.67;8.80;;;4.60;99.90;;;;;;5032863;28;20184;-53
2023/01/27 13:41:44;;;;;;;11.27;8.23;;;4.60;99.90;;;;;;5034424;28;20941;-49
2023/01/27 13:44:39;;;;;;;10.97;8.13;;;4.80;99.90;;;;;;5034465;28;20199;-51
2023/01/27 13:47:17;;;;;;;12.93;9.13;;;4.80;99.90;;;;;;5032812;28;20573;-51
2023/01/27 13:49:49;;;;;;;10.77;7.67;;;5.20;99.90;;;;;;5034208;28;20176;-49
2023/01/27 13:52:14;;;;;;;10.90;8.30;;;9.00;99.90;;;;;;5034179;28;20700;-53